This is the latest recevied weather packets stored in our database for station/object WZ9ZZZ-1. If no packets are shown the sender has not sent any weather packets the latest 1 day(s).
| Time | Temp. | Humidity | Pressure | Rain* | Wind** | Luminosity | Snow |
|---|---|---|---|---|---|---|---|
| 1777983103 | 23.33° C | 89% | 1012.9 hPa | 0 mm | 0.89 m/s, 197° | 16 W/m² | - |
| 1777982799 | 23.33° C | 89% | 1013 hPa | 0 mm | 1.34 m/s, 224° | 14 W/m² | - |
| 1777982496 | 23.33° C | 89% | 1012.8 hPa | 0 mm | 0.89 m/s, 203° | 4 W/m² | - |
| 1777982189 | 23.33° C | 89% | 1012.7 hPa | 0 mm | 2.24 m/s, 224° | 7 W/m² | - |
| 1777981888 | 23.33° C | 89% | 1012.5 hPa | 0 mm | 0.45 m/s, 170° | 3 W/m² | - |
| 1777981584 | 23.33° C | 89% | 1012.6 hPa | 0 mm | 2.68 m/s, 248° | 0 W/m² | - |
| 1777981280 | 23.33° C | 89% | 1012.7 hPa | 0 mm | 0.89 m/s, 182° | 1 W/m² | - |
| 1777980977 | 23.33° C | 89% | 1012.4 hPa | 0 mm | 0.45 m/s, 166° | 0 W/m² | - |
| 1777980674 | 23.33° C | 89% | 1012.5 hPa | 0 mm | 0.45 m/s, 184° | 0 W/m² | - |
| 1777980370 | 23.33° C | 89% | 1012.7 hPa | 0 mm | 0.89 m/s, 164° | 0 W/m² | - |
| 1777980068 | 23.33° C | 89% | 1012.7 hPa | 0 mm | 0.89 m/s, 199° | 0 W/m² | - |
| 1777979762 | 23.33° C | 89% | 1012.7 hPa | 0 mm | 2.24 m/s, 254° | 0 W/m² | - |
| 1777979458 | 23.33° C | 89% | 1012.9 hPa | 0 mm | 1.34 m/s, 223° | 0 W/m² | - |
| 1777979155 | 23.33° C | 89% | 1013.1 hPa | 0 mm | 0.89 m/s, 259° | 0 W/m² | - |
| 1777978852 | 23.33° C | 89% | 1012.7 hPa | 0 mm | 2.24 m/s, 249° | 0 W/m² | - |
| 1777978548 | 23.33° C | 89% | 1012.8 hPa | 0 mm | 1.34 m/s, 280° | 0 W/m² | - |
| 1777978244 | 23.33° C | 89% | 1012.5 hPa | 0 mm | 0.89 m/s, 186° | 0 W/m² | - |
| 1777977941 | 23.33° C | 89% | 1012.5 hPa | 0 mm | 1.79 m/s, 262° | 0 W/m² | - |
| 1777977639 | 23.33° C | 89% | 1012.5 hPa | 0 mm | 0.45 m/s, 142° | 0 W/m² | - |
| 1777977335 | 23.33° C | 89% | 1012.5 hPa | 0 mm | 1.34 m/s, 233° | 0 W/m² | - |
| 1777977033 | 23.33° C | 88% | 1012.6 hPa | 0 mm | 1.79 m/s, 218° | 0 W/m² | - |
| 1777976730 | 23.33° C | 88% | 1012.6 hPa | 0 mm | 1.79 m/s, 197° | 0 W/m² | - |
| 1777976427 | 23.33° C | 88% | 1012.5 hPa | 0 mm | 0.45 m/s, 156° | 0 W/m² | - |
| 1777976126 | 23.33° C | 88% | 1012.6 hPa | 0 mm | 0.45 m/s, 179° | 0 W/m² | - |
| 1777975822 | 23.33° C | 88% | 1012.3 hPa | 0 mm | 1.79 m/s, 278° | 0 W/m² | - |
* Rain latest hour (hover to see other rain measurements)
** Current wind speed in m/s (hover to see current wind gust speed)